sensor_id;sensor_type;location;lat;lon;timestamp;P1;durP1;ratioP1;P2;durP2;ratioP2
25657;SDS011;13517;59.320;18.042;2022-09-09T00:00:23;2.05;;;1.70;;
25657;SDS011;13517;59.320;18.042;2022-09-09T00:07:55;2.00;;;1.10;;
25657;SDS011;13517;59.320;18.042;2022-09-09T00:10:34;2.60;;;1.23;;
25657;SDS011;13517;59.320;18.042;2022-09-09T00:13:16;1.85;;;1.27;;
25657;SDS011;13517;59.320;18.042;2022-09-09T00:21:16;2.42;;;1.30;;
25657;SDS011;13517;59.320;18.042;2022-09-09T00:23:44;1.58;;;1.10;;
25657;SDS011;13517;59.320;18.042;2022-09-09T00:31:23;1.55;;;1.10;;
25657;SDS011;13517;59.320;18.042;2022-09-09T00:33:52;1.90;;;0.98;;
25657;SDS011;13517;59.320;18.042;2022-09-09T00:36:20;2.80;;;0.82;;
25657;SDS011;13517;59.320;18.042;2022-09-09T00:39:00;2.80;;;1.60;;
25657;SDS011;13517;59.320;18.042;2022-09-09T00:44:34;1.52;;;0.93;;
25657;SDS011;13517;59.320;18.042;2022-09-09T00:52:23;1.52;;;0.80;;
25657;SDS011;13517;59.320;18.042;2022-09-09T00:57:45;0.60;;;0.60;;
25657;SDS011;13517;59.320;18.042;2022-09-09T01:00:24;0.50;;;0.50;;
25657;SDS011;13517;59.320;18.042;2022-09-09T01:02:56;0.73;;;0.70;;
25657;SDS011;13517;59.320;18.042;2022-09-09T01:08:12;1.40;;;0.60;;
25657;SDS011;13517;59.320;18.042;2022-09-09T01:10:53;2.80;;;0.88;;
25657;SDS011;13517;59.320;18.042;2022-09-09T01:13:25;3.28;;;0.60;;
25657;SDS011;13517;59.320;18.042;2022-09-09T01:15:57;0.50;;;0.50;;
25657;SDS011;13517;59.320;18.042;2022-09-09T01:18:52;2.20;;;0.70;;
25657;SDS011;13517;59.320;18.042;2022-09-09T01:26:43;1.10;;;0.70;;
25657;SDS011;13517;59.320;18.042;2022-09-09T01:29:14;3.25;;;0.60;;
25657;SDS011;13517;59.320;18.042;2022-09-09T01:31:43;1.40;;;0.60;;
25657;SDS011;13517;59.320;18.042;2022-09-09T01:34:18;0.70;;;0.60;;
25657;SDS011;13517;59.320;18.042;2022-09-09T01:36:46;1.98;;;0.77;;
25657;SDS011;13517;59.320;18.042;2022-09-09T01:39:18;3.42;;;0.80;;
25657;SDS011;13517;59.320;18.042;2022-09-09T01:41:44;0.82;;;0.63;;
25657;SDS011;13517;59.320;18.042;2022-09-09T01:44:10;1.20;;;0.60;;
25657;SDS011;13517;59.320;18.042;2022-09-09T01:46:36;4.22;;;0.90;;
25657;SDS011;13517;59.320;18.042;2022-09-09T01:49:02;3.00;;;0.70;;
25657;SDS011;13517;59.320;18.042;2022-09-09T01:51:30;1.33;;;0.63;;
25657;SDS011;13517;59.320;18.042;2022-09-09T01:53:56;0.70;;;0.70;;
25657;SDS011;13517;59.320;18.042;2022-09-09T02:04:56;1.10;;;0.90;;
25657;SDS011;13517;59.320;18.042;2022-09-09T02:07:38;1.98;;;0.90;;
25657;SDS011;13517;59.320;18.042;2022-09-09T02:10:15;0.90;;;0.68;;
25657;SDS011;13517;59.320;18.042;2022-09-09T02:12:45;0.75;;;0.70;;
25657;SDS011;13517;59.320;18.042;2022-09-09T02:15:23;4.88;;;1.02;;
25657;SDS011;13517;59.320;18.042;2022-09-09T02:17:59;1.50;;;0.70;;
25657;SDS011;13517;59.320;18.042;2022-09-09T02:20:31;2.55;;;0.85;;
25657;SDS011;13517;59.320;18.042;2022-09-09T02:22:58;2.25;;;0.75;;
25657;SDS011;13517;59.320;18.042;2022-09-09T02:25:26;1.00;;;0.65;;
25657;SDS011;13517;59.320;18.042;2022-09-09T02:27:54;2.55;;;0.90;;
25657;SDS011;13517;59.320;18.042;2022-09-09T02:30:20;0.82;;;0.82;;
25657;SDS011;13517;59.320;18.042;2022-09-09T02:32:46;2.53;;;0.80;;
25657;SDS011;13517;59.320;18.042;2022-09-09T02:35:17;2.72;;;0.90;;
25657;SDS011;13517;59.320;18.042;2022-09-09T02:37:45;2.15;;;1.00;;
25657;SDS011;13517;59.320;18.042;2022-09-09T02:40:11;3.28;;;0.90;;
25657;SDS011;13517;59.320;18.042;2022-09-09T02:42:39;1.83;;;0.80;;
25657;SDS011;13517;59.320;18.042;2022-09-09T02:45:09;2.80;;;1.00;;
25657;SDS011;13517;59.320;18.042;2022-09-09T02:47:38;2.38;;;1.00;;
25657;SDS011;13517;59.320;18.042;2022-09-09T02:53:02;2.65;;;0.80;;
25657;SDS011;13517;59.320;18.042;2022-09-09T02:58:07;1.15;;;0.77;;
25657;SDS011;13517;59.320;18.042;2022-09-09T03:00:36;3.55;;;1.27;;
25657;SDS011;13517;59.320;18.042;2022-09-09T03:03:04;3.53;;;1.17;;
25657;SDS011;13517;59.320;18.042;2022-09-09T03:05:31;1.98;;;0.90;;
25657;SDS011;13517;59.320;18.042;2022-09-09T03:07:56;6.13;;;1.00;;
25657;SDS011;13517;59.320;18.042;2022-09-09T03:10:22;2.67;;;1.10;;
25657;SDS011;13517;59.320;18.042;2022-09-09T03:12:48;4.28;;;0.93;;
25657;SDS011;13517;59.320;18.042;2022-09-09T03:15:13;2.30;;;1.02;;
25657;SDS011;13517;59.320;18.042;2022-09-09T03:17:39;2.15;;;1.08;;
25657;SDS011;13517;59.320;18.042;2022-09-09T03:20:06;4.10;;;1.35;;
25657;SDS011;13517;59.320;18.042;2022-09-09T03:22:32;1.50;;;0.90;;
25657;SDS011;13517;59.320;18.042;2022-09-09T03:24:58;2.60;;;1.10;;
25657;SDS011;13517;59.320;18.042;2022-09-09T03:27:23;2.33;;;1.00;;
25657;SDS011;13517;59.320;18.042;2022-09-09T03:29:49;1.20;;;1.05;;
25657;SDS011;13517;59.320;18.042;2022-09-09T03:32:16;1.90;;;0.90;;
25657;SDS011;13517;59.320;18.042;2022-09-09T03:34:42;1.15;;;0.98;;
25657;SDS011;13517;59.320;18.042;2022-09-09T03:37:08;2.95;;;1.10;;
25657;SDS011;13517;59.320;18.042;2022-09-09T03:39:33;2.63;;;1.15;;
25657;SDS011;13517;59.320;18.042;2022-09-09T03:41:58;1.70;;;1.02;;
25657;SDS011;13517;59.320;18.042;2022-09-09T03:44:24;2.80;;;1.20;;
25657;SDS011;13517;59.320;18.042;2022-09-09T03:46:49;1.55;;;1.10;;
25657;SDS011;13517;59.320;18.042;2022-09-09T03:49:15;3.60;;;1.20;;
25657;SDS011;13517;59.320;18.042;2022-09-09T03:51:41;2.47;;;1.25;;
25657;SDS011;13517;59.320;18.042;2022-09-09T03:54:07;2.42;;;1.10;;
25657;SDS011;13517;59.320;18.042;2022-09-09T03:56:35;2.95;;;0.90;;
25657;SDS011;13517;59.320;18.042;2022-09-09T03:59:00;2.05;;;1.00;;
25657;SDS011;13517;59.320;18.042;2022-09-09T04:01:26;1.17;;;1.00;;
25657;SDS011;13517;59.320;18.042;2022-09-09T04:03:52;1.52;;;0.85;;
25657;SDS011;13517;59.320;18.042;2022-09-09T04:06:17;1.55;;;1.17;;
25657;SDS011;13517;59.320;18.042;2022-09-09T04:08:44;2.92;;;1.27;;
25657;SDS011;13517;59.320;18.042;2022-09-09T04:11:13;2.28;;;1.00;;
25657;SDS011;13517;59.320;18.042;2022-09-09T04:13:40;1.90;;;1.30;;
25657;SDS011;13517;59.320;18.042;2022-09-09T04:16:06;3.90;;;1.08;;
25657;SDS011;13517;59.320;18.042;2022-09-09T04:18:33;4.45;;;1.13;;
25657;SDS011;13517;59.320;18.042;2022-09-09T04:20:59;2.30;;;0.80;;
25657;SDS011;13517;59.320;18.042;2022-09-09T04:23:25;1.98;;;1.20;;
25657;SDS011;13517;59.320;18.042;2022-09-09T04:25:54;4.95;;;1.15;;
25657;SDS011;13517;59.320;18.042;2022-09-09T04:28:21;4.55;;;1.20;;
25657;SDS011;13517;59.320;18.042;2022-09-09T04:30:49;2.95;;;1.40;;
25657;SDS011;13517;59.320;18.042;2022-09-09T04:33:15;2.70;;;1.30;;
25657;SDS011;13517;59.320;18.042;2022-09-09T04:35:49;2.78;;;1.02;;
25657;SDS011;13517;59.320;18.042;2022-09-09T04:38:15;4.53;;;1.58;;
25657;SDS011;13517;59.320;18.042;2022-09-09T04:40:42;1.30;;;1.00;;
25657;SDS011;13517;59.320;18.042;2022-09-09T04:43:08;1.20;;;1.02;;
25657;SDS011;13517;59.320;18.042;2022-09-09T04:45:35;1.85;;;0.98;;
25657;SDS011;13517;59.320;18.042;2022-09-09T04:48:00;3.60;;;1.17;;
25657;SDS011;13517;59.320;18.042;2022-09-09T04:50:27;3.17;;;1.02;;
25657;SDS011;13517;59.320;18.042;2022-09-09T04:52:53;3.00;;;1.05;;
25657;SDS011;13517;59.320;18.042;2022-09-09T04:55:18;2.83;;;0.90;;
25657;SDS011;13517;59.320;18.042;2022-09-09T04:57:45;3.22;;;1.10;;
25657;SDS011;13517;59.320;18.042;2022-09-09T05:00:10;1.98;;;0.80;;
25657;SDS011;13517;59.320;18.042;2022-09-09T05:02:37;7.85;;;1.58;;
25657;SDS011;13517;59.320;18.042;2022-09-09T05:05:07;1.95;;;0.90;;
25657;SDS011;13517;59.320;18.042;2022-09-09T05:07:33;2.92;;;1.30;;
25657;SDS011;13517;59.320;18.042;2022-09-09T05:09:58;3.83;;;0.98;;
25657;SDS011;13517;59.320;18.042;2022-09-09T05:12:24;2.28;;;1.00;;
25657;SDS011;13517;59.320;18.042;2022-09-09T05:14:53;1.83;;;0.77;;
25657;SDS011;13517;59.320;18.042;2022-09-09T05:17:19;3.40;;;0.90;;
25657;SDS011;13517;59.320;18.042;2022-09-09T05:19:44;3.33;;;0.75;;
25657;SDS011;13517;59.320;18.042;2022-09-09T05:22:10;3.75;;;1.08;;
25657;SDS011;13517;59.320;18.042;2022-09-09T05:24:37;2.55;;;0.93;;
25657;SDS011;13517;59.320;18.042;2022-09-09T05:27:03;2.03;;;0.93;;
25657;SDS011;13517;59.320;18.042;2022-09-09T05:29:29;3.28;;;1.17;;
25657;SDS011;13517;59.320;18.042;2022-09-09T05:31:54;4.72;;;1.33;;
25657;SDS011;13517;59.320;18.042;2022-09-09T05:34:20;5.13;;;1.00;;
25657;SDS011;13517;59.320;18.042;2022-09-09T05:36:45;6.70;;;1.70;;
25657;SDS011;13517;59.320;18.042;2022-09-09T05:39:11;1.95;;;0.95;;
25657;SDS011;13517;59.320;18.042;2022-09-09T05:41:37;1.95;;;0.98;;
25657;SDS011;13517;59.320;18.042;2022-09-09T05:44:02;2.50;;;1.00;;
25657;SDS011;13517;59.320;18.042;2022-09-09T05:46:28;2.05;;;0.98;;
25657;SDS011;13517;59.320;18.042;2022-09-09T05:48:54;2.58;;;0.80;;
25657;SDS011;13517;59.320;18.042;2022-09-09T05:51:23;4.78;;;0.95;;
25657;SDS011;13517;59.320;18.042;2022-09-09T05:53:51;4.93;;;0.93;;
25657;SDS011;13517;59.320;18.042;2022-09-09T05:56:21;2.05;;;0.90;;
25657;SDS011;13517;59.320;18.042;2022-09-09T05:58:50;5.40;;;1.50;;
25657;SDS011;13517;59.320;18.042;2022-09-09T06:01:24;3.90;;;1.00;;
25657;SDS011;13517;59.320;18.042;2022-09-09T06:03:52;2.75;;;1.00;;
25657;SDS011;13517;59.320;18.042;2022-09-09T06:06:21;5.70;;;0.90;;
25657;SDS011;13517;59.320;18.042;2022-09-09T06:08:52;3.13;;;0.77;;
25657;SDS011;13517;59.320;18.042;2022-09-09T06:11:27;1.48;;;0.95;;
25657;SDS011;13517;59.320;18.042;2022-09-09T06:13:56;3.70;;;0.80;;
25657;SDS011;13517;59.320;18.042;2022-09-09T06:16:22;1.45;;;0.82;;
25657;SDS011;13517;59.320;18.042;2022-09-09T06:18:49;4.60;;;0.95;;
25657;SDS011;13517;59.320;18.042;2022-09-09T06:21:17;5.22;;;0.93;;
25657;SDS011;13517;59.320;18.042;2022-09-09T06:23:43;2.25;;;0.75;;
25657;SDS011;13517;59.320;18.042;2022-09-09T06:26:16;3.20;;;1.00;;
25657;SDS011;13517;59.320;18.042;2022-09-09T06:31:15;3.00;;;0.80;;
25657;SDS011;13517;59.320;18.042;2022-09-09T06:33:42;2.40;;;0.88;;
25657;SDS011;13517;59.320;18.042;2022-09-09T06:36:16;2.72;;;1.00;;
25657;SDS011;13517;59.320;18.042;2022-09-09T06:38:43;3.20;;;1.10;;
25657;SDS011;13517;59.320;18.042;2022-09-09T06:41:10;5.05;;;0.80;;
25657;SDS011;13517;59.320;18.042;2022-09-09T06:43:37;4.07;;;1.00;;
25657;SDS011;13517;59.320;18.042;2022-09-09T06:46:04;3.95;;;0.95;;
25657;SDS011;13517;59.320;18.042;2022-09-09T06:48:31;5.07;;;1.00;;
25657;SDS011;13517;59.320;18.042;2022-09-09T06:51:07;3.05;;;0.80;;
25657;SDS011;13517;59.320;18.042;2022-09-09T06:53:36;2.13;;;0.70;;
25657;SDS011;13517;59.320;18.042;2022-09-09T06:58:54;0.75;;;0.70;;
25657;SDS011;13517;59.320;18.042;2022-09-09T07:01:22;6.20;;;1.15;;
25657;SDS011;13517;59.320;18.042;2022-09-09T07:03:50;3.97;;;0.68;;
25657;SDS011;13517;59.320;18.042;2022-09-09T07:06:22;3.38;;;0.80;;
25657;SDS011;13517;59.320;18.042;2022-09-09T07:08:54;0.82;;;0.80;;
25657;SDS011;13517;59.320;18.042;2022-09-09T07:11:23;1.02;;;0.80;;
25657;SDS011;13517;59.320;18.042;2022-09-09T07:13:51;8.90;;;1.85;;
25657;SDS011;13517;59.320;18.042;2022-09-09T07:16:18;2.42;;;1.00;;
25657;SDS011;13517;59.320;18.042;2022-09-09T07:18:45;2.50;;;0.80;;
25657;SDS011;13517;59.320;18.042;2022-09-09T07:21:12;1.88;;;0.80;;
25657;SDS011;13517;59.320;18.042;2022-09-09T07:23:39;2.65;;;0.70;;
25657;SDS011;13517;59.320;18.042;2022-09-09T07:28:38;2.65;;;0.90;;
25657;SDS011;13517;59.320;18.042;2022-09-09T07:31:05;6.18;;;1.05;;
25657;SDS011;13517;59.320;18.042;2022-09-09T07:33:31;5.85;;;1.15;;
25657;SDS011;13517;59.320;18.042;2022-09-09T07:36:04;5.20;;;0.70;;
25657;SDS011;13517;59.320;18.042;2022-09-09T07:38:47;2.78;;;0.82;;
25657;SDS011;13517;59.320;18.042;2022-09-09T07:41:17;1.70;;;0.75;;
25657;SDS011;13517;59.320;18.042;2022-09-09T07:43:45;2.50;;;0.90;;
25657;SDS011;13517;59.320;18.042;2022-09-09T07:46:12;4.75;;;1.00;;
25657;SDS011;13517;59.320;18.042;2022-09-09T07:48:43;5.57;;;1.13;;
25657;SDS011;13517;59.320;18.042;2022-09-09T07:51:16;4.88;;;0.80;;
25657;SDS011;13517;59.320;18.042;2022-09-09T07:53:45;1.98;;;0.85;;
25657;SDS011;13517;59.320;18.042;2022-09-09T07:56:12;3.60;;;1.00;;
25657;SDS011;13517;59.320;18.042;2022-09-09T07:58:41;2.70;;;1.08;;
25657;SDS011;13517;59.320;18.042;2022-09-09T08:01:10;5.97;;;1.15;;
25657;SDS011;13517;59.320;18.042;2022-09-09T08:03:38;3.55;;;1.00;;
25657;SDS011;13517;59.320;18.042;2022-09-09T08:06:04;9.38;;;1.20;;
25657;SDS011;13517;59.320;18.042;2022-09-09T08:08:32;2.70;;;1.00;;
25657;SDS011;13517;59.320;18.042;2022-09-09T08:11:14;5.68;;;0.98;;
25657;SDS011;13517;59.320;18.042;2022-09-09T08:13:40;7.15;;;1.40;;
25657;SDS011;13517;59.320;18.042;2022-09-09T08:16:14;4.18;;;1.23;;
25657;SDS011;13517;59.320;18.042;2022-09-09T08:18:42;1.70;;;1.00;;
25657;SDS011;13517;59.320;18.042;2022-09-09T08:21:11;5.35;;;0.98;;
25657;SDS011;13517;59.320;18.042;2022-09-09T08:23:39;4.88;;;1.00;;
25657;SDS011;13517;59.320;18.042;2022-09-09T08:26:40;4.00;;;0.82;;
25657;SDS011;13517;59.320;18.042;2022-09-09T08:29:00;4.57;;;0.95;;
25657;SDS011;13517;59.320;18.042;2022-09-09T08:31:27;6.50;;;1.58;;
25657;SDS011;13517;59.320;18.042;2022-09-09T08:33:59;5.70;;;0.90;;
25657;SDS011;13517;59.320;18.042;2022-09-09T08:36:26;5.03;;;0.85;;
25657;SDS011;13517;59.320;18.042;2022-09-09T08:38:54;3.08;;;0.98;;
25657;SDS011;13517;59.320;18.042;2022-09-09T08:44:45;5.25;;;1.10;;
25657;SDS011;13517;59.320;18.042;2022-09-09T08:47:41;4.35;;;0.95;;
25657;SDS011;13517;59.320;18.042;2022-09-09T09:00:51;3.60;;;1.00;;
25657;SDS011;13517;59.320;18.042;2022-09-09T09:03:47;2.85;;;1.00;;
25657;SDS011;13517;59.320;18.042;2022-09-09T09:06:22;2.58;;;0.93;;
25657;SDS011;13517;59.320;18.042;2022-09-09T09:09:08;3.80;;;1.00;;
25657;SDS011;13517;59.320;18.042;2022-09-09T09:12:06;1.73;;;1.10;;
25657;SDS011;13517;59.320;18.042;2022-09-09T09:14:34;3.92;;;1.20;;
25657;SDS011;13517;59.320;18.042;2022-09-09T09:17:16;5.32;;;1.20;;
25657;SDS011;13517;59.320;18.042;2022-09-09T09:19:44;2.15;;;0.90;;
25657;SDS011;13517;59.320;18.042;2022-09-09T09:27:15;1.63;;;1.15;;
25657;SDS011;13517;59.320;18.042;2022-09-09T09:29:46;4.40;;;1.45;;
25657;SDS011;13517;59.320;18.042;2022-09-09T09:32:16;1.42;;;0.90;;
25657;SDS011;13517;59.320;18.042;2022-09-09T09:34:49;4.70;;;1.23;;
25657;SDS011;13517;59.320;18.042;2022-09-09T09:37:17;6.60;;;1.13;;
25657;SDS011;13517;59.320;18.042;2022-09-09T09:39:52;6.10;;;1.30;;
25657;SDS011;13517;59.320;18.042;2022-09-09T09:42:18;3.58;;;1.20;;
25657;SDS011;13517;59.320;18.042;2022-09-09T09:44:44;3.78;;;0.93;;
25657;SDS011;13517;59.320;18.042;2022-09-09T09:47:13;2.97;;;1.08;;
25657;SDS011;13517;59.320;18.042;2022-09-09T09:49:39;4.63;;;1.00;;
25657;SDS011;13517;59.320;18.042;2022-09-09T09:52:17;3.88;;;1.08;;
25657;SDS011;13517;59.320;18.042;2022-09-09T09:54:47;3.90;;;1.52;;
25657;SDS011;13517;59.320;18.042;2022-09-09T09:57:16;8.57;;;1.50;;
25657;SDS011;13517;59.320;18.042;2022-09-09T09:59:42;9.40;;;1.30;;
25657;SDS011;13517;59.320;18.042;2022-09-09T10:02:16;3.08;;;0.90;;
25657;SDS011;13517;59.320;18.042;2022-09-09T10:04:42;5.57;;;1.20;;
25657;SDS011;13517;59.320;18.042;2022-09-09T10:07:26;1.85;;;1.02;;
25657;SDS011;13517;59.320;18.042;2022-09-09T10:09:55;4.82;;;1.42;;
25657;SDS011;13517;59.320;18.042;2022-09-09T10:20:27;4.68;;;1.10;;
25657;SDS011;13517;59.320;18.042;2022-09-09T10:31:15;2.85;;;1.00;;
25657;SDS011;13517;59.320;18.042;2022-09-09T10:38:47;4.68;;;1.23;;
25657;SDS011;13517;59.320;18.042;2022-09-09T10:44:21;3.72;;;1.10;;
25657;SDS011;13517;59.320;18.042;2022-09-09T10:55:41;6.85;;;1.23;;
25657;SDS011;13517;59.320;18.042;2022-09-09T10:58:14;1.83;;;1.10;;
25657;SDS011;13517;59.320;18.042;2022-09-09T11:00:58;3.42;;;1.33;;
25657;SDS011;13517;59.320;18.042;2022-09-09T11:03:34;5.85;;;1.45;;
25657;SDS011;13517;59.320;18.042;2022-09-09T11:06:04;2.00;;;1.08;;
25657;SDS011;13517;59.320;18.042;2022-09-09T11:08:36;4.90;;;1.73;;
25657;SDS011;13517;59.320;18.042;2022-09-09T11:11:18;4.55;;;1.48;;
25657;SDS011;13517;59.320;18.042;2022-09-09T11:13:58;1.40;;;1.00;;
25657;SDS011;13517;59.320;18.042;2022-09-09T11:16:41;1.27;;;1.15;;
25657;SDS011;13517;59.320;18.042;2022-09-09T11:19:19;3.33;;;1.30;;
25657;SDS011;13517;59.320;18.042;2022-09-09T11:21:52;5.03;;;1.40;;
25657;SDS011;13517;59.320;18.042;2022-09-09T11:27:13;3.72;;;1.75;;
25657;SDS011;13517;59.320;18.042;2022-09-09T11:30:18;2.97;;;1.27;;
25657;SDS011;13517;59.320;18.042;2022-09-09T11:38:25;2.40;;;1.27;;
25657;SDS011;13517;59.320;18.042;2022-09-09T11:40:56;3.70;;;1.23;;
25657;SDS011;13517;59.320;18.042;2022-09-09T11:43:32;2.08;;;1.30;;
25657;SDS011;13517;59.320;18.042;2022-09-09T11:46:04;4.38;;;1.20;;
25657;SDS011;13517;59.320;18.042;2022-09-09T11:51:10;6.80;;;1.40;;
25657;SDS011;13517;59.320;18.042;2022-09-09T11:56:43;2.42;;;1.48;;
25657;SDS011;13517;59.320;18.042;2022-09-09T11:59:20;3.17;;;1.40;;
25657;SDS011;13517;59.320;18.042;2022-09-09T12:01:50;8.07;;;2.15;;
25657;SDS011;13517;59.320;18.042;2022-09-09T12:06:53;1.55;;;1.33;;
25657;SDS011;13517;59.320;18.042;2022-09-09T12:12:25;2.17;;;1.25;;
25657;SDS011;13517;59.320;18.042;2022-09-09T12:17:22;2.90;;;1.10;;
25657;SDS011;13517;59.320;18.042;2022-09-09T12:22:43;6.82;;;1.50;;
25657;SDS011;13517;59.320;18.042;2022-09-09T12:30:31;5.07;;;1.60;;
25657;SDS011;13517;59.320;18.042;2022-09-09T12:33:12;5.43;;;1.30;;
25657;SDS011;13517;59.320;18.042;2022-09-09T12:35:41;2.60;;;1.30;;
25657;SDS011;13517;59.320;18.042;2022-09-09T12:38:13;3.05;;;1.55;;
25657;SDS011;13517;59.320;18.042;2022-09-09T12:40:53;2.25;;;1.52;;
25657;SDS011;13517;59.320;18.042;2022-09-09T12:43:21;4.05;;;1.27;;
25657;SDS011;13517;59.320;18.042;2022-09-09T12:45:49;2.08;;;1.40;;
25657;SDS011;13517;59.320;18.042;2022-09-09T12:48:22;1.73;;;1.30;;
25657;SDS011;13517;59.320;18.042;2022-09-09T12:50:55;4.82;;;1.50;;
25657;SDS011;13517;59.320;18.042;2022-09-09T12:58:18;3.15;;;1.45;;
25657;SDS011;13517;59.320;18.042;2022-09-09T13:00:49;3.05;;;1.63;;
25657;SDS011;13517;59.320;18.042;2022-09-09T13:03:20;2.55;;;1.30;;
25657;SDS011;13517;59.320;18.042;2022-09-09T13:05:46;4.80;;;1.35;;
25657;SDS011;13517;59.320;18.042;2022-09-09T13:08:13;3.58;;;1.38;;
25657;SDS011;13517;59.320;18.042;2022-09-09T13:13:23;3.72;;;1.60;;
25657;SDS011;13517;59.320;18.042;2022-09-09T13:16:04;7.93;;;1.60;;
25657;SDS011;13517;59.320;18.042;2022-09-09T13:18:37;4.47;;;1.70;;
25657;SDS011;13517;59.320;18.042;2022-09-09T13:21:05;2.45;;;1.58;;
25657;SDS011;13517;59.320;18.042;2022-09-09T13:23:32;4.57;;;2.28;;
25657;SDS011;13517;59.320;18.042;2022-09-09T13:26:22;8.48;;;1.63;;
25657;SDS011;13517;59.320;18.042;2022-09-09T13:28:48;3.97;;;1.40;;
25657;SDS011;13517;59.320;18.042;2022-09-09T13:31:30;5.03;;;1.70;;
25657;SDS011;13517;59.320;18.042;2022-09-09T13:34:10;2.38;;;1.40;;
25657;SDS011;13517;59.320;18.042;2022-09-09T13:36:52;3.58;;;1.52;;
25657;SDS011;13517;59.320;18.042;2022-09-09T13:39:22;2.28;;;1.70;;
25657;SDS011;13517;59.320;18.042;2022-09-09T13:41:48;4.97;;;1.88;;
25657;SDS011;13517;59.320;18.042;2022-09-09T13:44:14;3.08;;;1.45;;
25657;SDS011;13517;59.320;18.042;2022-09-09T13:46:45;2.55;;;1.27;;
25657;SDS011;13517;59.320;18.042;2022-09-09T13:51:40;1.77;;;1.25;;
25657;SDS011;13517;59.320;18.042;2022-09-09T13:54:11;3.53;;;1.70;;
25657;SDS011;13517;59.320;18.042;2022-09-09T13:56:38;7.28;;;1.40;;
25657;SDS011;13517;59.320;18.042;2022-09-09T13:59:05;3.53;;;1.42;;
25657;SDS011;13517;59.320;18.042;2022-09-09T14:01:35;2.40;;;1.30;;
25657;SDS011;13517;59.320;18.042;2022-09-09T14:04:02;7.40;;;1.70;;
25657;SDS011;13517;59.320;18.042;2022-09-09T14:06:27;1.98;;;1.55;;
25657;SDS011;13517;59.320;18.042;2022-09-09T14:08:54;3.55;;;1.27;;
25657;SDS011;13517;59.320;18.042;2022-09-09T14:11:19;3.90;;;1.38;;
25657;SDS011;13517;59.320;18.042;2022-09-09T14:13:46;3.97;;;1.38;;
25657;SDS011;13517;59.320;18.042;2022-09-09T14:16:14;2.85;;;1.50;;
25657;SDS011;13517;59.320;18.042;2022-09-09T14:18:41;2.35;;;1.52;;
25657;SDS011;13517;59.320;18.042;2022-09-09T14:21:06;3.95;;;1.55;;
25657;SDS011;13517;59.320;18.042;2022-09-09T14:23:33;4.38;;;1.30;;
25657;SDS011;13517;59.320;18.042;2022-09-09T14:25:59;3.75;;;1.55;;
25657;SDS011;13517;59.320;18.042;2022-09-09T14:28:24;2.15;;;1.40;;
25657;SDS011;13517;59.320;18.042;2022-09-09T14:30:50;3.92;;;1.60;;
25657;SDS011;13517;59.320;18.042;2022-09-09T14:33:16;4.07;;;1.48;;
25657;SDS011;13517;59.320;18.042;2022-09-09T14:35:42;4.10;;;1.67;;
25657;SDS011;13517;59.320;18.042;2022-09-09T14:38:09;3.60;;;1.63;;
25657;SDS011;13517;59.320;18.042;2022-09-09T14:40:35;2.38;;;1.42;;
25657;SDS011;13517;59.320;18.042;2022-09-09T14:43:02;2.15;;;1.25;;
25657;SDS011;13517;59.320;18.042;2022-09-09T14:45:28;2.50;;;1.40;;
25657;SDS011;13517;59.320;18.042;2022-09-09T14:47:54;4.65;;;1.45;;
25657;SDS011;13517;59.320;18.042;2022-09-09T14:50:20;6.68;;;1.70;;
25657;SDS011;13517;59.320;18.042;2022-09-09T14:52:47;3.22;;;1.40;;
25657;SDS011;13517;59.320;18.042;2022-09-09T14:55:12;4.57;;;1.52;;
25657;SDS011;13517;59.320;18.042;2022-09-09T14:57:40;2.53;;;1.75;;
25657;SDS011;13517;59.320;18.042;2022-09-09T15:00:06;2.28;;;1.40;;
25657;SDS011;13517;59.320;18.042;2022-09-09T15:02:33;3.95;;;1.75;;
25657;SDS011;13517;59.320;18.042;2022-09-09T15:04:59;1.83;;;1.30;;
25657;SDS011;13517;59.320;18.042;2022-09-09T15:07:25;2.25;;;1.58;;
25657;SDS011;13517;59.320;18.042;2022-09-09T15:09:52;3.50;;;1.58;;
25657;SDS011;13517;59.320;18.042;2022-09-09T15:12:18;3.42;;;1.63;;
25657;SDS011;13517;59.320;18.042;2022-09-09T15:14:44;7.38;;;2.00;;
25657;SDS011;13517;59.320;18.042;2022-09-09T15:17:10;4.00;;;1.88;;
25657;SDS011;13517;59.320;18.042;2022-09-09T15:19:36;2.80;;;1.73;;
25657;SDS011;13517;59.320;18.042;2022-09-09T15:22:01;4.65;;;1.50;;
25657;SDS011;13517;59.320;18.042;2022-09-09T15:24:28;5.13;;;1.98;;
25657;SDS011;13517;59.320;18.042;2022-09-09T15:26:53;9.40;;;1.90;;
25657;SDS011;13517;59.320;18.042;2022-09-09T15:29:19;4.07;;;1.58;;
25657;SDS011;13517;59.320;18.042;2022-09-09T15:31:44;2.63;;;1.38;;
25657;SDS011;13517;59.320;18.042;2022-09-09T15:34:10;3.13;;;2.10;;
25657;SDS011;13517;59.320;18.042;2022-09-09T15:36:37;4.05;;;1.60;;
25657;SDS011;13517;59.320;18.042;2022-09-09T15:39:05;3.10;;;1.73;;
25657;SDS011;13517;59.320;18.042;2022-09-09T15:41:32;8.13;;;1.90;;
25657;SDS011;13517;59.320;18.042;2022-09-09T15:43:58;2.40;;;1.65;;
25657;SDS011;13517;59.320;18.042;2022-09-09T15:48:52;6.30;;;2.05;;
25657;SDS011;13517;59.320;18.042;2022-09-09T15:51:19;4.93;;;1.73;;
25657;SDS011;13517;59.320;18.042;2022-09-09T15:53:45;3.67;;;1.90;;
25657;SDS011;13517;59.320;18.042;2022-09-09T15:56:11;3.00;;;1.70;;
25657;SDS011;13517;59.320;18.042;2022-09-09T15:58:37;3.30;;;1.90;;
25657;SDS011;13517;59.320;18.042;2022-09-09T16:01:03;4.70;;;1.95;;
25657;SDS011;13517;59.320;18.042;2022-09-09T16:03:33;3.70;;;1.60;;
25657;SDS011;13517;59.320;18.042;2022-09-09T16:05:59;2.95;;;1.77;;
25657;SDS011;13517;59.320;18.042;2022-09-09T16:08:24;4.65;;;1.83;;
25657;SDS011;13517;59.320;18.042;2022-09-09T16:10:50;4.68;;;1.60;;
25657;SDS011;13517;59.320;18.042;2022-09-09T16:13:16;2.50;;;1.70;;
25657;SDS011;13517;59.320;18.042;2022-09-09T16:15:41;4.90;;;2.10;;
25657;SDS011;13517;59.320;18.042;2022-09-09T16:18:07;4.10;;;1.88;;
25657;SDS011;13517;59.320;18.042;2022-09-09T16:20:32;3.22;;;2.15;;
25657;SDS011;13517;59.320;18.042;2022-09-09T16:22:58;8.18;;;2.20;;
25657;SDS011;13517;59.320;18.042;2022-09-09T16:25:23;6.47;;;1.77;;
25657;SDS011;13517;59.320;18.042;2022-09-09T16:27:49;7.85;;;1.90;;
25657;SDS011;13517;59.320;18.042;2022-09-09T16:30:14;10.20;;;2.78;;
25657;SDS011;13517;59.320;18.042;2022-09-09T16:32:40;5.57;;;1.75;;
25657;SDS011;13517;59.320;18.042;2022-09-09T16:35:05;4.20;;;2.20;;
25657;SDS011;13517;59.320;18.042;2022-09-09T16:37:31;6.47;;;2.25;;
25657;SDS011;13517;59.320;18.042;2022-09-09T16:39:58;6.97;;;2.58;;
25657;SDS011;13517;59.320;18.042;2022-09-09T16:42:23;4.93;;;2.17;;
25657;SDS011;13517;59.320;18.042;2022-09-09T16:44:48;6.97;;;1.95;;
25657;SDS011;13517;59.320;18.042;2022-09-09T16:47:15;4.28;;;1.90;;
25657;SDS011;13517;59.320;18.042;2022-09-09T16:49:40;5.03;;;1.70;;
25657;SDS011;13517;59.320;18.042;2022-09-09T16:52:05;6.85;;;2.35;;
25657;SDS011;13517;59.320;18.042;2022-09-09T16:54:31;6.43;;;1.85;;
25657;SDS011;13517;59.320;18.042;2022-09-09T16:56:56;2.95;;;1.70;;
25657;SDS011;13517;59.320;18.042;2022-09-09T16:59:22;3.17;;;2.08;;
25657;SDS011;13517;59.320;18.042;2022-09-09T17:01:49;4.93;;;1.70;;
25657;SDS011;13517;59.320;18.042;2022-09-09T17:04:17;9.40;;;2.20;;
25657;SDS011;13517;59.320;18.042;2022-09-09T17:06:49;8.13;;;2.08;;
25657;SDS011;13517;59.320;18.042;2022-09-09T17:09:16;12.15;;;2.83;;
25657;SDS011;13517;59.320;18.042;2022-09-09T17:11:42;6.10;;;2.38;;
25657;SDS011;13517;59.320;18.042;2022-09-09T17:14:09;3.28;;;2.17;;
25657;SDS011;13517;59.320;18.042;2022-09-09T17:16:38;6.80;;;1.77;;